createdAt,value
2024-01-25T00:00:48.868Z,101776.44
2024-01-25T00:03:15.950Z,101780.78
2024-01-25T00:05:44.395Z,101783.44
2024-01-25T00:08:11.751Z,101751.84
2024-01-25T00:10:38.806Z,101774.66
2024-01-25T00:13:05.829Z,101717.69
2024-01-25T00:15:32.907Z,101763.28
2024-01-25T00:18:00.067Z,101735.22
2024-01-25T00:20:27.143Z,101729.97
2024-01-25T00:22:54.181Z,101722.06
2024-01-25T00:25:21.341Z,101777.31
2024-01-25T00:27:48.523Z,101762.41
2024-01-25T00:30:15.866Z,101719.44
2024-01-25T00:32:44.017Z,101724.69
2024-01-25T00:35:14.551Z,101766.75
2024-01-25T00:37:42.626Z,101765.91
2024-01-25T00:40:10.587Z,101754.50
2024-01-25T00:42:44.514Z,101774.66
2024-01-25T00:45:12.902Z,101754.50
2024-01-25T00:47:40.402Z,101773.78
2024-01-25T00:50:08.341Z,101762.41
2024-01-25T00:52:36.730Z,101766.75
2024-01-25T00:55:04.799Z,101757.13
2024-01-25T00:57:32.520Z,101762.41
2024-01-25T01:00:01.568Z,101758.00
2024-01-25T01:02:36.234Z,101765.00
2024-01-25T01:05:03.758Z,101772.91
2024-01-25T01:07:31.356Z,101763.28
2024-01-25T01:10:01.467Z,101722.94
2024-01-25T01:12:28.603Z,101763.25
2024-01-25T01:14:55.566Z,101787.81
2024-01-25T01:17:22.908Z,101758.00
2024-01-25T01:19:50.207Z,101769.41
2024-01-25T01:22:18.037Z,101716.78
2024-01-25T01:24:45.066Z,101770.28
2024-01-25T01:27:12.162Z,101786.97
2024-01-25T01:29:39.276Z,101726.44
2024-01-25T01:32:06.696Z,101720.31
2024-01-25T01:34:34.120Z,101745.72
2024-01-25T01:37:01.360Z,101758.00
2024-01-25T01:39:28.506Z,101717.69
2024-01-25T01:41:55.746Z,101743.97
2024-01-25T01:44:22.789Z,101711.56
2024-01-25T01:46:49.951Z,101758.00
2024-01-25T01:49:18.152Z,101768.53
2024-01-25T01:51:46.077Z,101701.88
2024-01-25T01:54:13.207Z,101694.88
2024-01-25T01:56:43.242Z,101716.81
2024-01-25T01:59:12.470Z,101767.66
2024-01-25T02:01:39.876Z,101761.50
2024-01-25T02:04:07.251Z,101752.75
2024-01-25T02:06:35.234Z,101770.28
2024-01-25T02:09:02.729Z,101754.50
2024-01-25T02:11:30.220Z,101748.38
2024-01-25T02:13:57.780Z,101786.06
2024-01-25T02:16:25.330Z,101775.56
2024-01-25T02:18:55.278Z,101722.91
2024-01-25T02:21:22.583Z,101781.69
2024-01-25T02:23:51.415Z,101717.69
2024-01-25T02:26:18.437Z,101754.50
2024-01-25T02:28:45.465Z,101722.03
2024-01-25T02:31:12.766Z,101730.84
2024-01-25T02:33:39.867Z,101769.38
2024-01-25T02:36:07.399Z,101767.66
2024-01-25T02:38:34.374Z,101767.63
2024-01-25T02:41:01.417Z,101734.31
2024-01-25T02:43:31.385Z,101713.28
2024-01-25T02:45:58.567Z,101758.88
2024-01-25T02:48:25.605Z,101718.56
2024-01-25T02:50:52.567Z,101753.59
2024-01-25T02:53:19.545Z,101765.00
2024-01-25T02:55:46.548Z,101780.78
2024-01-25T02:58:13.775Z,101725.50
2024-01-25T03:00:40.895Z,101743.94
2024-01-25T03:03:08.037Z,101732.53
2024-01-25T03:05:35.920Z,101751.81
2024-01-25T03:08:03.071Z,101793.03
2024-01-25T03:10:30.503Z,101732.50
2024-01-25T03:12:57.622Z,101786.91
2024-01-25T03:15:24.648Z,101782.50
2024-01-25T03:17:52.227Z,101786.88
2024-01-25T03:20:19.501Z,101749.13
2024-01-25T03:22:46.591Z,101734.22
2024-01-25T03:25:13.774Z,101741.22
2024-01-25T03:27:40.852Z,101748.25
2024-01-25T03:30:08.709Z,101774.56
2024-01-25T03:32:35.897Z,101749.97
2024-01-25T03:35:03.406Z,101736.00
2024-01-25T03:37:30.579Z,101742.06
2024-01-25T03:39:57.737Z,101728.03
2024-01-25T03:42:24.854Z,101755.19
2024-01-25T03:44:53.263Z,101739.44
2024-01-25T03:47:20.261Z,101756.06
2024-01-25T03:49:47.638Z,101773.59
2024-01-25T03:52:17.921Z,101750.78
2024-01-25T03:54:44.944Z,101805.22
2024-01-25T03:57:12.051Z,101799.06
2024-01-25T03:59:41.352Z,101749.88
2024-01-25T04:02:08.500Z,101762.16
2024-01-25T04:04:35.568Z,101800.81
2024-01-25T04:07:02.695Z,101811.31
2024-01-25T04:09:29.783Z,101756.00
2024-01-25T04:11:57.471Z,101738.47
2024-01-25T04:14:24.696Z,101784.06
2024-01-25T04:16:52.124Z,101781.41
2024-01-25T04:19:19.531Z,101751.63
2024-01-25T04:21:46.663Z,101813.88
2024-01-25T04:24:19.616Z,101772.56
2024-01-25T04:26:46.797Z,101811.22
2024-01-25T04:29:13.844Z,101823.50
2024-01-25T04:31:46.131Z,101827.00
2024-01-25T04:34:20.064Z,101803.28
2024-01-25T04:36:47.164Z,101810.28
2024-01-25T04:39:14.263Z,101844.59
2024-01-25T04:41:41.282Z,101848.94
2024-01-25T04:44:08.375Z,101818.19
2024-01-25T04:46:37.827Z,101835.69
2024-01-25T04:49:05.233Z,101796.16
2024-01-25T04:51:32.599Z,101794.38
2024-01-25T04:53:59.625Z,101822.47
2024-01-25T04:56:26.715Z,101820.66
2024-01-25T04:58:53.794Z,101790.78
2024-01-25T05:01:21.090Z,101843.38
2024-01-25T05:03:48.393Z,101843.44
2024-01-25T05:06:15.485Z,101846.06
2024-01-25T05:08:44.442Z,101831.09
2024-01-25T05:11:11.963Z,101822.22
2024-01-25T05:13:39.023Z,101869.69
2024-01-25T05:16:06.291Z,101875.72
2024-01-25T05:18:33.570Z,101887.16
2024-01-25T05:21:00.782Z,101853.69
2024-01-25T05:23:27.848Z,101882.69
2024-01-25T05:25:54.946Z,101844.00
2024-01-25T05:28:22.180Z,101856.31
2024-01-25T05:30:50.124Z,101871.16
2024-01-25T05:33:22.437Z,101914.19
2024-01-25T05:35:49.517Z,101824.59
2024-01-25T05:38:17.459Z,101899.25
2024-01-25T05:40:44.580Z,101901.84
2024-01-25T05:43:11.998Z,101881.53
2024-01-25T05:45:39.116Z,101865.59
2024-01-25T05:48:06.819Z,101842.88
2024-01-25T05:50:34.418Z,101832.28
2024-01-25T05:53:01.441Z,101900.75
2024-01-25T05:55:28.599Z,101883.19
2024-01-25T05:57:56.224Z,101912.09
2024-01-25T06:00:23.628Z,101838.19
2024-01-25T06:02:50.710Z,101823.28
2024-01-25T06:05:18.200Z,101820.47
2024-01-25T06:07:45.579Z,101844.13
2024-01-25T06:10:12.811Z,101897.75
2024-01-25T06:12:39.980Z,101881.09
2024-01-25T06:15:08.345Z,101874.97
2024-01-25T06:17:35.415Z,101873.22
2024-01-25T06:20:03.945Z,101889.91
2024-01-25T06:22:31.141Z,101883.88
2024-01-25T06:24:58.209Z,101877.81
2024-01-25T06:27:25.141Z,101849.66
2024-01-25T06:29:57.924Z,101869.09
2024-01-25T06:32:27.046Z,101890.16
2024-01-25T06:34:55.026Z,101891.97
2024-01-25T06:37:22.383Z,101879.63
2024-01-25T06:39:49.466Z,101889.19
2024-01-25T06:42:16.960Z,101896.13
2024-01-25T06:44:44.332Z,101884.75
2024-01-25T06:47:11.546Z,101887.34
2024-01-25T06:49:38.718Z,101903.09
2024-01-25T06:52:06.526Z,101915.34
2024-01-25T06:54:36.187Z,101908.34
2024-01-25T06:57:04.155Z,101906.56
2024-01-25T06:59:33.797Z,101888.03
2024-01-25T07:02:02.816Z,101904.66
2024-01-25T07:04:30.845Z,101916.78
2024-01-25T07:06:58.406Z,101913.25
2024-01-25T07:09:25.457Z,101914.06
2024-01-25T07:11:52.678Z,101915.78
2024-01-25T07:14:19.605Z,101904.31
2024-01-25T07:16:46.614Z,101912.16
2024-01-25T07:19:16.577Z,101928.94
2024-01-25T07:21:46.702Z,101938.56
2024-01-25T07:24:13.761Z,101945.56
2024-01-25T07:26:40.805Z,101944.69
2024-01-25T07:29:07.738Z,101951.63
2024-01-25T07:31:34.721Z,101952.53
2024-01-25T07:34:01.854Z,101954.25
2024-01-25T07:36:28.945Z,101946.41
2024-01-25T07:38:55.998Z,101942.00
2024-01-25T07:41:23.581Z,101944.56
2024-01-25T07:43:50.525Z,101952.53
2024-01-25T07:46:18.606Z,101939.22
2024-01-25T07:48:45.765Z,101945.38
2024-01-25T07:51:14.699Z,101936.50
2024-01-25T07:53:41.890Z,101926.91
2024-01-25T07:56:09.867Z,101940.94
2024-01-25T07:58:37.682Z,101946.22
2024-01-25T08:01:08.485Z,101935.59
2024-01-25T08:03:35.782Z,101950.56
2024-01-25T08:06:07.255Z,101947.09
2024-01-25T08:08:37.102Z,101939.22
2024-01-25T08:11:05.491Z,101954.09
2024-01-25T08:13:35.633Z,101960.06
2024-01-25T08:16:03.311Z,101958.25
2024-01-25T08:18:31.493Z,101953.00
2024-01-25T08:20:59.059Z,101952.28
2024-01-25T08:23:26.107Z,101939.22
2024-01-25T08:25:53.146Z,101946.25
2024-01-25T08:28:21.047Z,101944.47
2024-01-25T08:30:48.559Z,101933.03
2024-01-25T08:33:15.996Z,101947.97
2024-01-25T08:35:43.446Z,101954.22
2024-01-25T08:38:10.509Z,101931.34
2024-01-25T08:40:37.607Z,101942.81
2024-01-25T08:43:05.942Z,101968.34
2024-01-25T08:45:33.423Z,101959.69
2024-01-25T08:48:01.341Z,101949.16
2024-01-25T08:50:28.843Z,101966.72
2024-01-25T08:52:56.481Z,101945.72
2024-01-25T08:55:23.732Z,101965.13
2024-01-25T08:57:51.356Z,101952.81
2024-01-25T09:00:19.424Z,101970.47
2024-01-25T09:02:46.920Z,101970.44
2024-01-25T09:05:14.118Z,101974.81
2024-01-25T09:07:41.385Z,101970.50
2024-01-25T09:10:09.279Z,101969.69
2024-01-25T09:12:38.836Z,101965.50
2024-01-25T09:15:06.543Z,101953.19
2024-01-25T09:17:33.755Z,101966.34
2024-01-25T09:20:01.671Z,101962.84
2024-01-25T09:22:29.036Z,101950.63
2024-01-25T09:24:56.174Z,101970.03
2024-01-25T09:27:23.205Z,101982.38
2024-01-25T09:29:50.461Z,101974.50
2024-01-25T09:32:18.316Z,101982.44
2024-01-25T09:34:45.547Z,101977.19
2024-01-25T09:37:12.838Z,101960.56
2024-01-25T09:39:40.152Z,101982.63
2024-01-25T09:42:08.480Z,101980.03
2024-01-25T09:44:35.704Z,101985.38
2024-01-25T09:47:06.752Z,101988.03
2024-01-25T09:49:34.467Z,101988.91
2024-01-25T09:52:07.012Z,101982.78
2024-01-25T09:54:39.880Z,101981.00
2024-01-25T09:57:24.550Z,101989.78
2024-01-25T10:00:01.881Z,101989.81
2024-01-25T10:02:32.052Z,102002.13
2024-01-25T10:05:05.855Z,101984.59
2024-01-25T10:07:44.567Z,101984.59
2024-01-25T10:10:13.794Z,101968.78
2024-01-25T10:12:46.073Z,101992.53
2024-01-25T10:15:13.186Z,101991.63
2024-01-25T10:17:58.640Z,101984.63
2024-01-25T10:20:29.832Z,101991.69
2024-01-25T10:23:00.499Z,101977.72
2024-01-25T10:25:28.977Z,101983.09
2024-01-25T10:27:56.521Z,101991.94
2024-01-25T10:30:28.488Z,102009.50
2024-01-25T10:32:56.755Z,102000.75
2024-01-25T10:35:25.707Z,101989.38
2024-01-25T10:37:56.792Z,101996.44
2024-01-25T10:40:24.522Z,101992.06
2024-01-25T10:42:52.690Z,101991.19
2024-01-25T10:45:20.303Z,101971.00
2024-01-25T10:47:50.394Z,101991.22
2024-01-25T10:50:17.830Z,101983.31
2024-01-25T10:52:46.072Z,101986.81
2024-01-25T10:55:14.489Z,101971.91
2024-01-25T10:57:46.406Z,101975.38
2024-01-25T11:00:16.453Z,101975.44
2024-01-25T11:02:45.568Z,101962.25
2024-01-25T11:05:18.908Z,101971.03
2024-01-25T11:07:51.669Z,101971.97
2024-01-25T11:10:25.228Z,101960.53
2024-01-25T11:13:00.703Z,101957.94
2024-01-25T11:15:36.411Z,101961.44
2024-01-25T11:18:08.416Z,101966.72
2024-01-25T11:20:37.883Z,101953.59
2024-01-25T11:23:10.375Z,101953.63
2024-01-25T11:25:40.239Z,101947.50
2024-01-25T11:28:11.730Z,101951.91
2024-01-25T11:30:39.213Z,101944.91
2024-01-25T11:33:08.635Z,101942.25
2024-01-25T11:35:36.448Z,101944.91
2024-01-25T11:38:03.774Z,101945.78
2024-01-25T11:40:34.311Z,101931.72
2024-01-25T11:43:04.178Z,101937.88
2024-01-25T11:45:31.330Z,101927.31
2024-01-25T11:47:58.560Z,101915.00
2024-01-25T11:50:26.025Z,101913.22
2024-01-25T11:52:53.153Z,101909.69
2024-01-25T11:55:20.315Z,101911.44
2024-01-25T11:57:50.899Z,101910.53
2024-01-25T12:00:19.188Z,101894.75
2024-01-25T12:02:46.212Z,101899.16
2024-01-25T12:05:14.923Z,101899.09
2024-01-25T12:07:42.316Z,101865.75
2024-01-25T12:10:18.057Z,101883.28
2024-01-25T12:12:45.445Z,101870.19
2024-01-25T12:15:12.738Z,101873.63
2024-01-25T12:17:41.776Z,101876.22
2024-01-25T12:20:12.998Z,101871.81
2024-01-25T12:22:40.514Z,101865.59
2024-01-25T12:25:11.766Z,101869.94
2024-01-25T12:27:46.847Z,101869.91
2024-01-25T12:30:14.299Z,101866.38
2024-01-25T12:32:41.506Z,101853.09
2024-01-25T12:35:10.017Z,101853.88
2024-01-25T12:37:37.448Z,101847.72
2024-01-25T12:40:05.483Z,101830.97
2024-01-25T12:42:32.970Z,101839.78
2024-01-25T12:45:00.097Z,101831.03
2024-01-25T12:47:28.161Z,101817.75
2024-01-25T12:49:55.350Z,101819.50
2024-01-25T12:52:22.746Z,101817.75
2024-01-25T12:54:49.891Z,101826.47
2024-01-25T12:57:17.067Z,101801.97
2024-01-25T12:59:44.319Z,101819.56
2024-01-25T13:02:13.385Z,101825.66
2024-01-25T13:04:40.587Z,101815.09
2024-01-25T13:07:07.655Z,101804.47
2024-01-25T13:09:41.539Z,101805.22
2024-01-25T13:12:08.807Z,101783.09
2024-01-25T13:14:35.899Z,101784.66
2024-01-25T13:17:03.034Z,101797.75
2024-01-25T13:19:30.248Z,101787.06
2024-01-25T13:21:57.366Z,101795.63
2024-01-25T13:24:24.520Z,101788.47
2024-01-25T13:26:51.763Z,101789.06
2024-01-25T13:29:19.369Z,101787.09
2024-01-25T13:31:46.789Z,101774.53
2024-01-25T13:34:14.357Z,101775.50
2024-01-25T13:36:42.595Z,101780.91
2024-01-25T13:39:11.242Z,101776.56
2024-01-25T13:41:38.279Z,101768.50
2024-01-25T13:44:05.246Z,101772.41
2024-01-25T13:46:34.793Z,101771.44
2024-01-25T13:49:05.162Z,101774.84
2024-01-25T13:51:32.447Z,101771.31
2024-01-25T13:53:59.472Z,101754.16
2024-01-25T13:56:26.647Z,101763.56
2024-01-25T13:58:53.792Z,101761.50
2024-01-25T14:01:21.622Z,101761.13
2024-01-25T14:03:49.104Z,101753.88
2024-01-25T14:06:16.454Z,101770.84
2024-01-25T14:08:43.734Z,101770.00
2024-01-25T14:11:11.523Z,101760.44
2024-01-25T14:13:38.753Z,101744.91
2024-01-25T14:16:06.132Z,101752.00
2024-01-25T14:18:38.888Z,101755.03
2024-01-25T14:21:06.294Z,101760.84
2024-01-25T14:23:36.359Z,101761.75
2024-01-25T14:26:04.140Z,101757.50
2024-01-25T14:28:31.572Z,101756.75
2024-01-25T14:30:58.785Z,101751.72
2024-01-25T14:33:26.237Z,101752.72
2024-01-25T14:35:53.365Z,101765.13
2024-01-25T14:38:20.465Z,101774.25
2024-01-25T14:40:56.755Z,101764.63
2024-01-25T14:43:26.676Z,101771.69
2024-01-25T14:45:56.860Z,101771.69
2024-01-25T14:48:23.990Z,101760.38
2024-01-25T14:50:51.339Z,101763.03
2024-01-25T14:53:19.615Z,101751.75
2024-01-25T14:55:46.797Z,101749.22
2024-01-25T14:58:17.350Z,101736.19
2024-01-25T15:00:45.796Z,101734.41
2024-01-25T15:03:13.210Z,101744.97
2024-01-25T15:05:40.303Z,101749.44
2024-01-25T15:08:07.376Z,101738.94
2024-01-25T15:10:34.639Z,101746.81
2024-01-25T15:13:01.854Z,101743.34
2024-01-25T15:15:29.484Z,101745.09
2024-01-25T15:17:56.764Z,101736.38
2024-01-25T15:20:23.994Z,101750.41
2024-01-25T15:22:52.492Z,101732.88
2024-01-25T15:25:19.868Z,101724.97
2024-01-25T15:27:47.033Z,101700.50
2024-01-25T15:30:14.302Z,101688.28
2024-01-25T15:32:42.683Z,101733.00
2024-01-25T15:35:10.360Z,101727.75
2024-01-25T15:37:38.578Z,101727.78
2024-01-25T15:40:11.908Z,101701.53
2024-01-25T15:42:43.754Z,101715.53
2024-01-25T15:45:11.293Z,101693.69
2024-01-25T15:47:38.690Z,101705.06
2024-01-25T15:50:06.479Z,101691.19
2024-01-25T15:52:34.828Z,101680.69
2024-01-25T15:55:02.367Z,101686.81
2024-01-25T15:57:32.481Z,101661.50
2024-01-25T16:00:00.876Z,101704.41
2024-01-25T16:02:30.974Z,101712.31
2024-01-25T16:04:58.024Z,101673.81
2024-01-25T16:07:25.190Z,101712.41
2024-01-25T16:09:52.445Z,101721.16
2024-01-25T16:12:20.230Z,101719.41
2024-01-25T16:14:48.603Z,101712.41
2024-01-25T16:17:18.816Z,101707.16
2024-01-25T16:19:45.941Z,101718.56
2024-01-25T16:22:14.845Z,101730.84
2024-01-25T16:24:42.218Z,101734.34
2024-01-25T16:27:12.111Z,101743.97
2024-01-25T16:29:39.476Z,101701.91
2024-01-25T16:32:10.077Z,101682.63
2024-01-25T16:34:37.611Z,101729.09
2024-01-25T16:37:05.021Z,101712.41
2024-01-25T16:39:32.034Z,101694.88
2024-01-25T16:41:59.094Z,101729.06
2024-01-25T16:44:26.141Z,101731.72
2024-01-25T16:46:53.120Z,101724.69
2024-01-25T16:49:20.323Z,101734.34
2024-01-25T16:51:47.709Z,101725.56
2024-01-25T16:54:16.539Z,101694.03
2024-01-25T16:56:48.796Z,101727.31
2024-01-25T16:59:19.424Z,101729.09
2024-01-25T17:01:46.524Z,101732.59
2024-01-25T17:04:14.154Z,101720.31
2024-01-25T17:06:43.276Z,101722.94
2024-01-25T17:09:11.044Z,101715.03
2024-01-25T17:11:38.187Z,101730.84
2024-01-25T17:14:09.264Z,101725.56
2024-01-25T17:16:36.636Z,101722.94
2024-01-25T17:19:04.785Z,101709.78
2024-01-25T17:21:32.965Z,101698.38
2024-01-25T17:24:00.355Z,101725.53
2024-01-25T17:26:27.612Z,101727.31
2024-01-25T17:28:57.730Z,101681.72
2024-01-25T17:31:24.777Z,101729.06
2024-01-25T17:33:52.301Z,101737.81
2024-01-25T17:36:19.577Z,101730.81
2024-01-25T17:38:46.659Z,101739.53
2024-01-25T17:41:13.768Z,101733.44
2024-01-25T17:43:46.456Z,101713.25
2024-01-25T17:46:13.816Z,101723.75
2024-01-25T17:48:41.141Z,101733.44
2024-01-25T17:51:08.335Z,101725.53
2024-01-25T17:53:36.657Z,101732.53
2024-01-25T17:56:04.057Z,101736.06
2024-01-25T17:58:31.043Z,101707.13
2024-01-25T18:00:58.414Z,101716.78
2024-01-25T18:03:25.575Z,101720.28
2024-01-25T18:05:53.658Z,101701.84
2024-01-25T18:08:20.960Z,101700.97
2024-01-25T18:10:48.210Z,101701.88
2024-01-25T18:13:18.253Z,101700.16
2024-01-25T18:15:45.351Z,101706.25
2024-01-25T18:18:12.594Z,101706.28
2024-01-25T18:20:39.764Z,101702.78
2024-01-25T18:23:07.018Z,101687.00
2024-01-25T18:25:34.156Z,101711.53
2024-01-25T18:28:04.257Z,101685.22
2024-01-25T18:30:31.311Z,101714.16
2024-01-25T18:32:58.480Z,101705.38
2024-01-25T18:35:25.705Z,101696.63
2024-01-25T18:37:52.785Z,101687.00
2024-01-25T18:40:22.586Z,101714.13
2024-01-25T18:42:52.303Z,101682.59
2024-01-25T18:45:20.354Z,101672.09
2024-01-25T18:47:47.600Z,101692.25
2024-01-25T18:50:14.951Z,101684.38
2024-01-25T18:52:42.168Z,101687.88
2024-01-25T18:55:10.939Z,101687.84
2024-01-25T18:57:41.984Z,101691.38
2024-01-25T19:00:13.072Z,101660.69
2024-01-25T19:02:43.600Z,101703.63
2024-01-25T19:05:11.633Z,101701.88
2024-01-25T19:07:40.749Z,101687.00
2024-01-25T19:10:08.594Z,101686.13
2024-01-25T19:12:36.602Z,101691.38
2024-01-25T19:15:05.832Z,101688.75
2024-01-25T19:17:33.006Z,101688.75
2024-01-25T19:20:00.777Z,101697.50
2024-01-25T19:22:28.116Z,101683.50
2024-01-25T19:24:55.288Z,101701.03
2024-01-25T19:27:22.708Z,101685.25
2024-01-25T19:29:49.983Z,101691.38
2024-01-25T19:32:17.067Z,101662.44
2024-01-25T19:34:44.362Z,101681.72
2024-01-25T19:37:11.692Z,101681.72
2024-01-25T19:39:39.195Z,101679.09
2024-01-25T19:42:07.203Z,101671.22
2024-01-25T19:44:35.526Z,101696.63
2024-01-25T19:47:02.804Z,101687.00
2024-01-25T19:49:30.522Z,101689.63
2024-01-25T19:51:57.760Z,101682.63
2024-01-25T19:54:30.108Z,101691.38
2024-01-25T19:57:07.444Z,101689.63
2024-01-25T19:59:54.441Z,101689.66
2024-01-25T20:02:35.154Z,101692.28
2024-01-25T20:08:13.411Z,101688.75
2024-01-25T20:10:45.081Z,101692.25
2024-01-25T20:13:12.306Z,101694.00
2024-01-25T20:15:39.576Z,101687.84
2024-01-25T20:18:07.080Z,101657.19
2024-01-25T20:20:42.962Z,101694.00
2024-01-25T20:23:15.715Z,101688.75
2024-01-25T20:25:44.111Z,101694.91
2024-01-25T20:28:11.435Z,101694.88
2024-01-25T20:30:40.235Z,101700.13
2024-01-25T20:33:07.795Z,101677.34
2024-01-25T20:35:35.308Z,101691.38
2024-01-25T20:38:16.691Z,101680.88
2024-01-25T20:40:44.851Z,101690.50
2024-01-25T20:43:12.056Z,101693.16
2024-01-25T20:45:41.435Z,101687.88
2024-01-25T20:48:09.346Z,101678.25
2024-01-25T20:50:39.046Z,101673.88
2024-01-25T20:53:08.048Z,101680.88
2024-01-25T20:55:38.636Z,101669.47
2024-01-25T20:58:06.046Z,101662.47
2024-01-25T21:00:33.331Z,101654.59
2024-01-25T21:03:01.316Z,101671.25
2024-01-25T21:05:29.151Z,101673.84
2024-01-25T21:07:57.532Z,101664.25
2024-01-25T21:10:25.309Z,101670.34
2024-01-25T21:12:52.800Z,101675.63
2024-01-25T21:15:20.804Z,101663.34
2024-01-25T21:17:48.003Z,101676.47
2024-01-25T21:20:15.174Z,101658.97
2024-01-25T21:22:42.470Z,101653.72
2024-01-25T21:25:11.964Z,101656.34
2024-01-25T21:27:39.571Z,101644.97
2024-01-25T21:30:07.632Z,101644.06
2024-01-25T21:32:34.892Z,101648.44
2024-01-25T21:35:02.303Z,101635.31
2024-01-25T21:37:29.906Z,101649.31
2024-01-25T21:39:58.085Z,101646.72
2024-01-25T21:42:27.685Z,101622.16
2024-01-25T21:44:54.919Z,101637.94
2024-01-25T21:47:22.662Z,101634.44
2024-01-25T21:49:50.319Z,101637.06
2024-01-25T21:52:19.416Z,101613.41
2024-01-25T21:54:49.298Z,101631.81
2024-01-25T21:57:16.630Z,101627.44
2024-01-25T21:59:43.930Z,101624.81
2024-01-25T22:02:11.266Z,101629.19
2024-01-25T22:04:40.447Z,101641.44
2024-01-25T22:07:08.459Z,101636.19
2024-01-25T22:09:35.770Z,101644.06
2024-01-25T22:12:02.840Z,101639.72
2024-01-25T22:14:32.889Z,101639.69
2024-01-25T22:17:00.080Z,101646.69
2024-01-25T22:19:27.198Z,101631.81
2024-01-25T22:21:54.291Z,101635.28
2024-01-25T22:24:21.311Z,101639.69
2024-01-25T22:26:48.352Z,101640.53
2024-01-25T22:29:15.706Z,101646.69
2024-01-25T22:31:43.023Z,101648.44
2024-01-25T22:34:10.317Z,101646.69
2024-01-25T22:36:37.523Z,101648.44
2024-01-25T22:39:05.001Z,101649.31
2024-01-25T22:41:32.003Z,101648.44
2024-01-25T22:43:59.053Z,101647.56
2024-01-25T22:46:28.859Z,101652.81
2024-01-25T22:48:56.955Z,101623.03
2024-01-25T22:51:24.014Z,101624.78
2024-01-25T22:53:51.585Z,101643.19
2024-01-25T22:56:19.835Z,101646.69
2024-01-25T22:58:46.984Z,101639.69
2024-01-25T23:01:14.203Z,101648.47
2024-01-25T23:03:43.463Z,101658.97
2024-01-25T23:06:10.957Z,101643.16
2024-01-25T23:08:38.630Z,101644.94
2024-01-25T23:11:07.075Z,101657.22
2024-01-25T23:13:35.434Z,101659.84
2024-01-25T23:16:04.562Z,101666.84
2024-01-25T23:18:31.849Z,101663.34
2024-01-25T23:20:58.817Z,101662.47
2024-01-25T23:23:26.076Z,101660.72
2024-01-25T23:25:53.380Z,101643.22
2024-01-25T23:28:20.376Z,101654.56
2024-01-25T23:30:47.415Z,101662.47
2024-01-25T23:33:16.554Z,101660.72
2024-01-25T23:35:44.730Z,101653.69
2024-01-25T23:38:11.698Z,101654.56
2024-01-25T23:40:38.942Z,101659.84
2024-01-25T23:43:06.448Z,101658.09
2024-01-25T23:45:34.001Z,101639.69
2024-01-25T23:48:01.192Z,101661.63
2024-01-25T23:50:28.462Z,101668.63
2024-01-25T23:52:55.653Z,101664.25
2024-01-25T23:55:22.742Z,101662.47
2024-01-25T23:57:52.849Z,101654.59
